sensor_id;sensor_type;location;lat;lon;timestamp;pressure;altitude;pressure_sealevel;temperature;humidity
36828;BME280;22766;48.042;11.192;2023-05-31T00:00:31;95307.41;;;11.82;100.00
36828;BME280;22766;48.042;11.192;2023-05-31T00:02:58;95309.03;;;11.83;100.00
36828;BME280;22766;48.042;11.192;2023-05-31T00:05:25;95307.25;;;11.83;100.00
36828;BME280;22766;48.042;11.192;2023-05-31T00:07:52;95305.97;;;11.87;100.00
36828;BME280;22766;48.042;11.192;2023-05-31T00:10:19;95307.28;;;11.91;100.00
36828;BME280;22766;48.042;11.192;2023-05-31T00:12:46;95307.84;;;12.03;100.00
36828;BME280;22766;48.042;11.192;2023-05-31T00:15:13;95307.84;;;12.03;100.00
36828;BME280;22766;48.042;11.192;2023-05-31T00:17:39;95306.25;;;12.02;100.00
36828;BME280;22766;48.042;11.192;2023-05-31T00:20:09;95309.50;;;12.04;100.00
36828;BME280;22766;48.042;11.192;2023-05-31T00:22:36;95303.03;;;12.08;100.00
36828;BME280;22766;48.042;11.192;2023-05-31T00:25:03;95315.50;;;12.12;100.00
36828;BME280;22766;48.042;11.192;2023-05-31T00:27:29;95299.16;;;12.12;100.00
36828;BME280;22766;48.042;11.192;2023-05-31T00:29:56;95314.03;;;12.10;100.00
36828;BME280;22766;48.042;11.192;2023-05-31T00:32:23;95311.91;;;12.05;100.00
36828;BME280;22766;48.042;11.192;2023-05-31T00:34:49;95319.19;;;12.02;100.00
36828;BME280;22766;48.042;11.192;2023-05-31T00:37:16;95309.94;;;11.99;100.00
36828;BME280;22766;48.042;11.192;2023-05-31T00:39:43;95306.34;;;11.92;100.00
36828;BME280;22766;48.042;11.192;2023-05-31T00:42:10;95306.78;;;11.88;100.00
36828;BME280;22766;48.042;11.192;2023-05-31T00:44:36;95308.38;;;11.81;100.00
36828;BME280;22766;48.042;11.192;2023-05-31T00:47:04;95306.31;;;11.67;100.00
36828;BME280;22766;48.042;11.192;2023-05-31T00:49:31;95305.06;;;11.53;100.00
36828;BME280;22766;48.042;11.192;2023-05-31T00:51:58;95303.88;;;11.48;100.00
36828;BME280;22766;48.042;11.192;2023-05-31T00:54:25;95301.47;;;11.28;100.00
36828;BME280;22766;48.042;11.192;2023-05-31T00:56:52;95303.47;;;11.17;100.00
36828;BME280;22766;48.042;11.192;2023-05-31T00:59:19;95298.38;;;11.07;100.00
36828;BME280;22766;48.042;11.192;2023-05-31T01:01:46;95303.63;;;10.98;100.00
36828;BME280;22766;48.042;11.192;2023-05-31T01:04:15;95297.72;;;10.88;100.00
36828;BME280;22766;48.042;11.192;2023-05-31T01:06:42;95301.41;;;10.85;100.00
36828;BME280;22766;48.042;11.192;2023-05-31T01:09:09;95303.78;;;10.79;100.00
36828;BME280;22766;48.042;11.192;2023-05-31T01:17:25;95311.56;;;10.69;100.00
36828;BME280;22766;48.042;11.192;2023-05-31T01:20:01;95304.91;;;10.67;100.00
36828;BME280;22766;48.042;11.192;2023-05-31T01:25:17;95306.00;;;10.64;100.00
36828;BME280;22766;48.042;11.192;2023-05-31T01:27:49;95302.19;;;10.68;100.00
36828;BME280;22766;48.042;11.192;2023-05-31T01:30:21;95303.69;;;10.71;100.00
36828;BME280;22766;48.042;11.192;2023-05-31T01:32:48;95301.25;;;10.69;100.00
36828;BME280;22766;48.042;11.192;2023-05-31T01:35:17;95300.84;;;10.64;100.00
36828;BME280;22766;48.042;11.192;2023-05-31T01:37:44;95290.00;;;10.61;100.00
36828;BME280;22766;48.042;11.192;2023-05-31T01:40:13;95294.50;;;10.59;100.00
36828;BME280;22766;48.042;11.192;2023-05-31T01:42:41;95288.41;;;10.60;100.00
36828;BME280;22766;48.042;11.192;2023-05-31T01:45:10;95293.56;;;10.60;100.00
36828;BME280;22766;48.042;11.192;2023-05-31T01:47:39;95292.75;;;10.59;100.00
36828;BME280;22766;48.042;11.192;2023-05-31T01:50:12;95289.63;;;10.56;100.00
36828;BME280;22766;48.042;11.192;2023-05-31T01:52:39;95294.50;;;10.59;100.00
36828;BME280;22766;48.042;11.192;2023-05-31T01:55:07;95285.94;;;10.58;100.00
36828;BME280;22766;48.042;11.192;2023-05-31T01:57:37;95291.25;;;10.57;100.00
36828;BME280;22766;48.042;11.192;2023-05-31T02:00:05;95295.16;;;10.61;100.00
36828;BME280;22766;48.042;11.192;2023-05-31T02:02:42;95296.72;;;10.54;100.00
36828;BME280;22766;48.042;11.192;2023-05-31T02:05:10;95293.63;;;10.50;100.00
36828;BME280;22766;48.042;11.192;2023-05-31T02:07:38;95291.44;;;10.46;100.00
36828;BME280;22766;48.042;11.192;2023-05-31T02:10:06;95289.84;;;10.45;100.00
36828;BME280;22766;48.042;11.192;2023-05-31T02:12:35;95286.34;;;10.36;100.00
36828;BME280;22766;48.042;11.192;2023-05-31T02:15:04;95286.91;;;10.30;100.00
36828;BME280;22766;48.042;11.192;2023-05-31T02:17:31;95294.44;;;10.23;100.00
36828;BME280;22766;48.042;11.192;2023-05-31T02:19:59;95292.25;;;10.19;100.00
36828;BME280;22766;48.042;11.192;2023-05-31T02:22:26;95298.50;;;10.16;100.00
36828;BME280;22766;48.042;11.192;2023-05-31T02:24:53;95296.38;;;10.12;100.00
36828;BME280;22766;48.042;11.192;2023-05-31T02:27:20;95290.69;;;9.99;100.00
36828;BME280;22766;48.042;11.192;2023-05-31T02:29:47;95294.91;;;9.90;100.00
36828;BME280;22766;48.042;11.192;2023-05-31T02:32:14;95286.25;;;9.91;100.00
36828;BME280;22766;48.042;11.192;2023-05-31T02:34:40;95287.22;;;9.81;100.00
36828;BME280;22766;48.042;11.192;2023-05-31T02:37:08;95290.75;;;9.80;100.00
36828;BME280;22766;48.042;11.192;2023-05-31T02:39:35;95294.41;;;9.77;100.00
36828;BME280;22766;48.042;11.192;2023-05-31T02:42:02;95288.28;;;9.78;100.00
36828;BME280;22766;48.042;11.192;2023-05-31T02:44:29;95286.31;;;9.72;100.00
36828;BME280;22766;48.042;11.192;2023-05-31T02:46:56;95287.94;;;9.64;100.00
36828;BME280;22766;48.042;11.192;2023-05-31T02:49:23;95292.69;;;9.59;100.00
36828;BME280;22766;48.042;11.192;2023-05-31T02:51:50;95292.19;;;9.55;100.00
36828;BME280;22766;48.042;11.192;2023-05-31T02:54:37;95287.94;;;9.54;100.00
36828;BME280;22766;48.042;11.192;2023-05-31T02:57:07;95290.13;;;9.49;100.00
36828;BME280;22766;48.042;11.192;2023-05-31T02:59:36;95293.81;;;9.47;100.00
36828;BME280;22766;48.042;11.192;2023-05-31T03:02:07;95298.56;;;9.32;100.00
36828;BME280;22766;48.042;11.192;2023-05-31T03:04:40;95293.41;;;9.32;100.00
36828;BME280;22766;48.042;11.192;2023-05-31T03:07:08;95287.44;;;9.31;100.00
36828;BME280;22766;48.042;11.192;2023-05-31T03:09:36;95289.34;;;9.29;100.00
36828;BME280;22766;48.042;11.192;2023-05-31T03:12:04;95292.59;;;9.22;100.00
36828;BME280;22766;48.042;11.192;2023-05-31T03:14:33;95290.03;;;9.22;100.00
36828;BME280;22766;48.042;11.192;2023-05-31T03:17:00;95287.47;;;9.22;100.00
36828;BME280;22766;48.042;11.192;2023-05-31T03:19:27;95287.31;;;9.23;100.00
36828;BME280;22766;48.042;11.192;2023-05-31T03:21:54;95285.97;;;9.19;100.00
36828;BME280;22766;48.042;11.192;2023-05-31T03:24:23;95290.47;;;9.17;100.00
36828;BME280;22766;48.042;11.192;2023-05-31T03:26:50;95293.44;;;9.13;100.00
36828;BME280;22766;48.042;11.192;2023-05-31T03:29:17;95292.63;;;9.12;100.00
36828;BME280;22766;48.042;11.192;2023-05-31T03:31:46;95286.53;;;9.04;100.00
36828;BME280;22766;48.042;11.192;2023-05-31T03:34:13;95293.28;;;9.05;100.00
36828;BME280;22766;48.042;11.192;2023-05-31T03:36:41;95293.56;;;9.02;100.00
36828;BME280;22766;48.042;11.192;2023-05-31T03:39:30;95293.28;;;8.95;100.00
36828;BME280;22766;48.042;11.192;2023-05-31T03:42:00;95300.06;;;8.87;100.00
36828;BME280;22766;48.042;11.192;2023-05-31T03:44:28;95297.22;;;8.80;100.00
36828;BME280;22766;48.042;11.192;2023-05-31T03:46:55;95304.25;;;8.78;100.00
36828;BME280;22766;48.042;11.192;2023-05-31T03:49:21;95300.84;;;8.78;100.00
36828;BME280;22766;48.042;11.192;2023-05-31T03:51:48;95302.88;;;8.74;100.00
36828;BME280;22766;48.042;11.192;2023-05-31T03:54:15;95300.31;;;8.74;100.00
36828;BME280;22766;48.042;11.192;2023-05-31T03:56:42;95304.78;;;8.82;100.00
36828;BME280;22766;48.042;11.192;2023-05-31T03:59:09;95305.09;;;8.88;100.00
36828;BME280;22766;48.042;11.192;2023-05-31T04:01:36;95304.13;;;8.99;100.00
36828;BME280;22766;48.042;11.192;2023-05-31T04:04:03;95302.09;;;9.12;100.00
36828;BME280;22766;48.042;11.192;2023-05-31T04:06:30;95309.41;;;9.26;100.00
36828;BME280;22766;48.042;11.192;2023-05-31T04:08:57;95309.81;;;9.40;100.00
36828;BME280;22766;48.042;11.192;2023-05-31T04:11:24;95300.84;;;9.44;100.00
36828;BME280;22766;48.042;11.192;2023-05-31T04:13:52;95299.50;;;9.50;100.00
36828;BME280;22766;48.042;11.192;2023-05-31T04:16:21;95301.66;;;9.55;100.00
36828;BME280;22766;48.042;11.192;2023-05-31T04:18:49;95309.41;;;9.55;100.00
36828;BME280;22766;48.042;11.192;2023-05-31T04:21:16;95300.16;;;9.62;100.00
36828;BME280;22766;48.042;11.192;2023-05-31T04:23:42;95301.78;;;9.63;100.00
36828;BME280;22766;48.042;11.192;2023-05-31T04:26:09;95303.13;;;9.67;100.00
36828;BME280;22766;48.042;11.192;2023-05-31T04:28:45;95311.81;;;9.66;100.00
36828;BME280;22766;48.042;11.192;2023-05-31T04:31:18;95315.88;;;9.68;100.00
36828;BME280;22766;48.042;11.192;2023-05-31T04:33:45;95313.13;;;9.79;100.00
36828;BME280;22766;48.042;11.192;2023-05-31T04:36:13;95313.41;;;9.86;100.00
36828;BME280;22766;48.042;11.192;2023-05-31T04:38:39;95312.81;;;9.92;100.00
36828;BME280;22766;48.042;11.192;2023-05-31T04:41:06;95309.84;;;9.96;100.00
36828;BME280;22766;48.042;11.192;2023-05-31T04:43:33;95318.78;;;10.02;100.00
36828;BME280;22766;48.042;11.192;2023-05-31T04:46:00;95310.34;;;10.09;100.00
36828;BME280;22766;48.042;11.192;2023-05-31T04:48:29;95310.16;;;10.20;100.00
36828;BME280;22766;48.042;11.192;2023-05-31T04:50:57;95302.53;;;10.28;100.00
36828;BME280;22766;48.042;11.192;2023-05-31T04:53:26;95314.56;;;10.38;100.00
36828;BME280;22766;48.042;11.192;2023-05-31T04:55:54;95315.06;;;10.51;100.00
36828;BME280;22766;48.042;11.192;2023-05-31T04:58:21;95316.13;;;10.58;100.00
36828;BME280;22766;48.042;11.192;2023-05-31T05:00:47;95314.44;;;10.66;100.00
36828;BME280;22766;48.042;11.192;2023-05-31T05:03:28;95309.06;;;10.77;100.00
36828;BME280;22766;48.042;11.192;2023-05-31T05:05:56;95311.72;;;10.85;100.00
36828;BME280;22766;48.042;11.192;2023-05-31T05:08:23;95312.63;;;10.94;100.00
36828;BME280;22766;48.042;11.192;2023-05-31T05:10:50;95314.03;;;11.06;100.00
36828;BME280;22766;48.042;11.192;2023-05-31T05:13:17;95314.69;;;11.25;100.00
36828;BME280;22766;48.042;11.192;2023-05-31T05:15:45;95322.28;;;11.45;99.63
36828;BME280;22766;48.042;11.192;2023-05-31T05:18:14;95318.06;;;11.61;99.34
36828;BME280;22766;48.042;11.192;2023-05-31T05:20:41;95318.22;;;11.77;98.28
36828;BME280;22766;48.042;11.192;2023-05-31T05:23:09;95321.28;;;12.06;98.34
36828;BME280;22766;48.042;11.192;2023-05-31T05:25:36;95315.22;;;12.23;95.94
36828;BME280;22766;48.042;11.192;2023-05-31T05:28:03;95306.91;;;12.38;94.55
36828;BME280;22766;48.042;11.192;2023-05-31T05:30:30;95320.75;;;12.62;93.99
36828;BME280;22766;48.042;11.192;2023-05-31T05:32:58;95316.13;;;12.82;91.32
36828;BME280;22766;48.042;11.192;2023-05-31T05:35:25;95323.22;;;13.22;89.69
36828;BME280;22766;48.042;11.192;2023-05-31T05:37:52;95320.13;;;13.26;86.60
36828;BME280;22766;48.042;11.192;2023-05-31T05:40:20;95319.50;;;13.40;86.79
36828;BME280;22766;48.042;11.192;2023-05-31T05:42:47;95316.88;;;13.64;86.25
36828;BME280;22766;48.042;11.192;2023-05-31T05:45:15;95321.09;;;13.81;84.02
36828;BME280;22766;48.042;11.192;2023-05-31T05:47:43;95328.06;;;13.97;82.75
36828;BME280;22766;48.042;11.192;2023-05-31T05:50:14;95321.91;;;13.98;82.06
36828;BME280;22766;48.042;11.192;2023-05-31T05:52:41;95322.16;;;14.19;82.99
36828;BME280;22766;48.042;11.192;2023-05-31T05:55:08;95320.00;;;14.47;81.00
36828;BME280;22766;48.042;11.192;2023-05-31T05:57:35;95327.94;;;14.53;77.32
36828;BME280;22766;48.042;11.192;2023-05-31T06:00:23;95324.72;;;14.82;74.65
36828;BME280;22766;48.042;11.192;2023-05-31T06:02:51;95325.59;;;15.05;76.32
36828;BME280;22766;48.042;11.192;2023-05-31T06:05:18;95323.88;;;15.20;75.45
36828;BME280;22766;48.042;11.192;2023-05-31T06:07:48;95326.66;;;15.19;69.72
36828;BME280;22766;48.042;11.192;2023-05-31T06:10:15;95321.34;;;15.35;71.88
36828;BME280;22766;48.042;11.192;2023-05-31T06:12:43;95321.38;;;15.57;70.50
36828;BME280;22766;48.042;11.192;2023-05-31T06:15:11;95331.81;;;15.72;72.52
36828;BME280;22766;48.042;11.192;2023-05-31T06:17:39;95327.72;;;15.77;67.30
36828;BME280;22766;48.042;11.192;2023-05-31T06:20:07;95330.03;;;15.72;65.33
36828;BME280;22766;48.042;11.192;2023-05-31T06:22:35;95320.41;;;15.73;67.49
36828;BME280;22766;48.042;11.192;2023-05-31T06:25:02;95323.59;;;15.83;63.49
36828;BME280;22766;48.042;11.192;2023-05-31T06:27:28;95322.63;;;15.84;65.27
36828;BME280;22766;48.042;11.192;2023-05-31T06:29:56;95321.34;;;15.80;65.23
36828;BME280;22766;48.042;11.192;2023-05-31T06:32:30;95324.34;;;15.92;65.70
36828;BME280;22766;48.042;11.192;2023-05-31T06:34:57;95322.47;;;16.00;67.52
36828;BME280;22766;48.042;11.192;2023-05-31T06:37:24;95333.25;;;16.12;65.73
36828;BME280;22766;48.042;11.192;2023-05-31T06:39:52;95331.28;;;16.28;62.56
36828;BME280;22766;48.042;11.192;2023-05-31T06:42:20;95333.81;;;16.36;62.48
36828;BME280;22766;48.042;11.192;2023-05-31T06:44:57;95336.81;;;16.48;63.13
36828;BME280;22766;48.042;11.192;2023-05-31T06:47:56;95336.97;;;16.75;59.87
36828;BME280;22766;48.042;11.192;2023-05-31T06:50:52;95331.56;;;16.92;62.24
36828;BME280;22766;48.042;11.192;2023-05-31T06:53:38;95336.50;;;17.01;60.08
36828;BME280;22766;48.042;11.192;2023-05-31T06:56:20;95328.34;;;17.25;58.50
36828;BME280;22766;48.042;11.192;2023-05-31T06:58:47;95326.56;;;17.47;59.93
36828;BME280;22766;48.042;11.192;2023-05-31T07:01:14;95325.66;;;17.54;56.95
36828;BME280;22766;48.042;11.192;2023-05-31T07:03:41;95328.28;;;17.76;58.94
36828;BME280;22766;48.042;11.192;2023-05-31T07:06:08;95327.66;;;17.73;57.47
36828;BME280;22766;48.042;11.192;2023-05-31T07:08:36;95318.97;;;17.94;54.17
36828;BME280;22766;48.042;11.192;2023-05-31T07:11:29;95321.34;;;18.17;54.58
36828;BME280;22766;48.042;11.192;2023-05-31T07:13:56;95316.81;;;18.32;54.06
36828;BME280;22766;48.042;11.192;2023-05-31T07:16:28;95319.41;;;18.25;55.20
36828;BME280;22766;48.042;11.192;2023-05-31T07:18:57;95315.66;;;18.34;52.66
36828;BME280;22766;48.042;11.192;2023-05-31T07:21:24;95311.59;;;18.59;51.40
36828;BME280;22766;48.042;11.192;2023-05-31T07:23:51;95313.88;;;18.76;49.25
36828;BME280;22766;48.042;11.192;2023-05-31T07:26:18;95311.06;;;18.77;50.78
36828;BME280;22766;48.042;11.192;2023-05-31T07:28:45;95314.28;;;18.73;49.96
36828;BME280;22766;48.042;11.192;2023-05-31T07:31:12;95316.75;;;18.87;50.49
36828;BME280;22766;48.042;11.192;2023-05-31T07:33:43;95320.13;;;18.75;50.61
36828;BME280;22766;48.042;11.192;2023-05-31T07:36:10;95311.59;;;19.07;48.88
36828;BME280;22766;48.042;11.192;2023-05-31T07:38:37;95310.50;;;19.35;47.37
36828;BME280;22766;48.042;11.192;2023-05-31T07:41:04;95309.53;;;19.43;47.28
36828;BME280;22766;48.042;11.192;2023-05-31T07:43:31;95317.78;;;19.53;48.58
36828;BME280;22766;48.042;11.192;2023-05-31T07:45:58;95318.84;;;19.72;44.90
36828;BME280;22766;48.042;11.192;2023-05-31T07:48:25;95311.31;;;19.42;46.73
36828;BME280;22766;48.042;11.192;2023-05-31T07:50:52;95307.69;;;19.56;46.87
36828;BME280;22766;48.042;11.192;2023-05-31T07:53:19;95310.34;;;19.63;48.26
36828;BME280;22766;48.042;11.192;2023-05-31T07:55:45;95305.94;;;19.96;49.54
36828;BME280;22766;48.042;11.192;2023-05-31T07:58:12;95311.34;;;20.08;48.04
36828;BME280;22766;48.042;11.192;2023-05-31T08:00:39;95306.94;;;20.21;44.91
36828;BME280;22766;48.042;11.192;2023-05-31T08:03:07;95307.16;;;20.26;45.08
36828;BME280;22766;48.042;11.192;2023-05-31T08:05:34;95303.50;;;20.08;45.33
36828;BME280;22766;48.042;11.192;2023-05-31T08:08:01;95300.84;;;20.54;44.63
36828;BME280;22766;48.042;11.192;2023-05-31T08:10:29;95300.56;;;20.75;43.22
36828;BME280;22766;48.042;11.192;2023-05-31T08:12:56;95298.97;;;20.67;44.76
36828;BME280;22766;48.042;11.192;2023-05-31T08:15:23;95291.72;;;20.69;45.20
36828;BME280;22766;48.042;11.192;2023-05-31T08:17:50;95292.03;;;20.92;44.99
36828;BME280;22766;48.042;11.192;2023-05-31T08:20:17;95292.50;;;21.27;44.38
36828;BME280;22766;48.042;11.192;2023-05-31T08:22:44;95296.63;;;21.48;44.34
36828;BME280;22766;48.042;11.192;2023-05-31T08:25:12;95299.63;;;21.51;42.99
36828;BME280;22766;48.042;11.192;2023-05-31T08:27:40;95292.50;;;21.58;42.95
36828;BME280;22766;48.042;11.192;2023-05-31T08:30:11;95292.25;;;21.66;40.61
36828;BME280;22766;48.042;11.192;2023-05-31T08:32:38;95294.28;;;21.64;42.44
36828;BME280;22766;48.042;11.192;2023-05-31T08:35:07;95287.81;;;21.67;41.50
36828;BME280;22766;48.042;11.192;2023-05-31T08:37:36;95273.00;;;21.48;42.24
36828;BME280;22766;48.042;11.192;2023-05-31T08:40:04;95289.50;;;21.55;39.71
36828;BME280;22766;48.042;11.192;2023-05-31T08:42:53;95281.88;;;21.78;41.18
36828;BME280;22766;48.042;11.192;2023-05-31T08:45:21;95286.03;;;21.61;40.49
36828;BME280;22766;48.042;11.192;2023-05-31T08:50:24;95279.09;;;21.73;40.15
36828;BME280;22766;48.042;11.192;2023-05-31T08:52:53;95270.28;;;21.92;38.57
36828;BME280;22766;48.042;11.192;2023-05-31T08:55:23;95275.59;;;21.79;39.60
36828;BME280;22766;48.042;11.192;2023-05-31T08:57:51;95279.16;;;21.91;39.43
36828;BME280;22766;48.042;11.192;2023-05-31T09:00:19;95277.38;;;21.85;39.83
36828;BME280;22766;48.042;11.192;2023-05-31T09:02:47;95281.06;;;22.26;38.95
36828;BME280;22766;48.042;11.192;2023-05-31T09:05:15;95279.50;;;22.01;37.69
36828;BME280;22766;48.042;11.192;2023-05-31T09:07:42;95282.03;;;22.07;38.72
36828;BME280;22766;48.042;11.192;2023-05-31T09:10:09;95281.75;;;21.97;37.85
36828;BME280;22766;48.042;11.192;2023-05-31T09:12:36;95277.00;;;21.81;36.42
36828;BME280;22766;48.042;11.192;2023-05-31T09:15:05;95285.72;;;21.82;36.67
36828;BME280;22766;48.042;11.192;2023-05-31T09:17:32;95282.97;;;21.95;36.77
36828;BME280;22766;48.042;11.192;2023-05-31T09:19:59;95281.16;;;21.95;35.65
36828;BME280;22766;48.042;11.192;2023-05-31T09:22:26;95276.09;;;22.18;37.31
36828;BME280;22766;48.042;11.192;2023-05-31T09:24:59;95280.66;;;22.29;36.62
36828;BME280;22766;48.042;11.192;2023-05-31T09:27:34;95279.19;;;22.34;36.18
36828;BME280;22766;48.042;11.192;2023-05-31T09:32:34;95283.28;;;22.48;35.14
36828;BME280;22766;48.042;11.192;2023-05-31T09:35:14;95284.44;;;22.34;34.88
36828;BME280;22766;48.042;11.192;2023-05-31T09:37:46;95282.63;;;22.52;35.15
36828;BME280;22766;48.042;11.192;2023-05-31T09:40:23;95272.44;;;22.62;35.93
36828;BME280;22766;48.042;11.192;2023-05-31T09:42:53;95277.75;;;22.74;34.67
36828;BME280;22766;48.042;11.192;2023-05-31T09:45:21;95275.66;;;22.21;34.54
36828;BME280;22766;48.042;11.192;2023-05-31T09:47:48;95280.50;;;22.43;35.14
36828;BME280;22766;48.042;11.192;2023-05-31T09:50:22;95268.16;;;22.43;33.71
36828;BME280;22766;48.042;11.192;2023-05-31T09:52:55;95282.69;;;22.27;33.53
36828;BME280;22766;48.042;11.192;2023-05-31T09:55:23;95270.41;;;22.21;33.57
36828;BME280;22766;48.042;11.192;2023-05-31T09:57:52;95272.94;;;22.10;33.19
36828;BME280;22766;48.042;11.192;2023-05-31T10:00:19;95268.13;;;22.25;35.10
36828;BME280;22766;48.042;11.192;2023-05-31T10:02:48;95272.97;;;22.28;34.19
36828;BME280;22766;48.042;11.192;2023-05-31T10:05:15;95271.72;;;22.30;33.86
36828;BME280;22766;48.042;11.192;2023-05-31T10:07:44;95263.75;;;22.55;35.61
36828;BME280;22766;48.042;11.192;2023-05-31T10:10:12;95267.09;;;22.87;34.25
36828;BME280;22766;48.042;11.192;2023-05-31T10:12:57;95263.53;;;22.81;35.04
36828;BME280;22766;48.042;11.192;2023-05-31T10:15:26;95258.63;;;22.85;34.21
36828;BME280;22766;48.042;11.192;2023-05-31T10:18:07;95261.72;;;23.11;34.34
36828;BME280;22766;48.042;11.192;2023-05-31T10:20:43;95256.03;;;23.26;33.41
36828;BME280;22766;48.042;11.192;2023-05-31T10:23:19;95258.38;;;22.86;32.56
36828;BME280;22766;48.042;11.192;2023-05-31T10:25:50;95249.69;;;22.86;33.06
36828;BME280;22766;48.042;11.192;2023-05-31T10:28:27;95252.66;;;22.89;33.11
36828;BME280;22766;48.042;11.192;2023-05-31T10:31:33;95247.34;;;22.78;32.14
36828;BME280;22766;48.042;11.192;2023-05-31T10:36:43;95261.03;;;23.34;33.74
36828;BME280;22766;48.042;11.192;2023-05-31T10:44:38;95253.41;;;23.26;33.02
36828;BME280;22766;48.042;11.192;2023-05-31T10:47:06;95253.56;;;23.72;33.35
36828;BME280;22766;48.042;11.192;2023-05-31T10:49:36;95253.66;;;23.66;31.96
36828;BME280;22766;48.042;11.192;2023-05-31T10:52:04;95250.66;;;23.51;31.02
36828;BME280;22766;48.042;11.192;2023-05-31T10:54:32;95252.81;;;23.42;30.91
36828;BME280;22766;48.042;11.192;2023-05-31T10:57:03;95235.47;;;23.35;30.96
36828;BME280;22766;48.042;11.192;2023-05-31T10:59:39;95245.13;;;23.41;33.46
36828;BME280;22766;48.042;11.192;2023-05-31T11:02:10;95238.09;;;23.76;33.94
36828;BME280;22766;48.042;11.192;2023-05-31T11:04:45;95240.66;;;24.17;33.80
36828;BME280;22766;48.042;11.192;2023-05-31T11:07:22;95234.47;;;24.35;31.92
36828;BME280;22766;48.042;11.192;2023-05-31T11:09:56;95232.50;;;24.07;30.15
36828;BME280;22766;48.042;11.192;2023-05-31T11:12:36;95231.72;;;24.06;33.20
36828;BME280;22766;48.042;11.192;2023-05-31T11:15:04;95229.53;;;24.38;34.04
36828;BME280;22766;48.042;11.192;2023-05-31T11:17:53;95228.91;;;24.71;33.25
36828;BME280;22766;48.042;11.192;2023-05-31T11:20:21;95232.47;;;24.65;33.24
36828;BME280;22766;48.042;11.192;2023-05-31T11:26:15;95215.84;;;25.04;33.66
36828;BME280;22766;48.042;11.192;2023-05-31T11:28:56;95234.66;;;24.56;30.55
36828;BME280;22766;48.042;11.192;2023-05-31T11:34:22;95225.97;;;24.33;30.40
36828;BME280;22766;48.042;11.192;2023-05-31T11:36:57;95228.09;;;24.70;32.78
36828;BME280;22766;48.042;11.192;2023-05-31T11:39:25;95215.66;;;24.94;34.07
36828;BME280;22766;48.042;11.192;2023-05-31T11:41:56;95217.78;;;24.80;30.57
36828;BME280;22766;48.042;11.192;2023-05-31T11:44:32;95215.13;;;25.09;31.01
36828;BME280;22766;48.042;11.192;2023-05-31T11:47:04;95221.25;;;24.46;29.71
36828;BME280;22766;48.042;11.192;2023-05-31T11:49:31;95224.13;;;24.45;30.25
36828;BME280;22766;48.042;11.192;2023-05-31T11:52:01;95216.31;;;24.50;31.22
36828;BME280;22766;48.042;11.192;2023-05-31T11:54:29;95217.78;;;24.80;30.79
36828;BME280;22766;48.042;11.192;2023-05-31T11:56:59;95220.75;;;25.12;32.13
36828;BME280;22766;48.042;11.192;2023-05-31T11:59:26;95206.03;;;25.16;31.84
36828;BME280;22766;48.042;11.192;2023-05-31T12:01:58;95214.59;;;25.23;31.48
36828;BME280;22766;48.042;11.192;2023-05-31T12:06:59;95215.00;;;25.93;29.48
36828;BME280;22766;48.042;11.192;2023-05-31T12:09:27;95212.19;;;26.00;28.88
36828;BME280;22766;48.042;11.192;2023-05-31T12:11:54;95212.31;;;26.43;29.77
36828;BME280;22766;48.042;11.192;2023-05-31T12:14:23;95203.69;;;26.52;27.34
36828;BME280;22766;48.042;11.192;2023-05-31T12:16:52;95203.53;;;27.29;27.29
36828;BME280;22766;48.042;11.192;2023-05-31T12:19:18;95202.97;;;27.48;26.75
36828;BME280;22766;48.042;11.192;2023-05-31T12:21:45;95200.78;;;27.72;27.75
36828;BME280;22766;48.042;11.192;2023-05-31T12:24:14;95194.06;;;27.64;26.16
36828;BME280;22766;48.042;11.192;2023-05-31T12:26:42;95203.28;;;28.20;25.82
36828;BME280;22766;48.042;11.192;2023-05-31T12:29:14;95197.94;;;28.57;26.22
36828;BME280;22766;48.042;11.192;2023-05-31T12:31:42;95199.59;;;28.73;25.07
36828;BME280;22766;48.042;11.192;2023-05-31T12:34:18;95198.84;;;28.83;25.35
36828;BME280;22766;48.042;11.192;2023-05-31T12:36:47;95187.28;;;29.19;23.34
36828;BME280;22766;48.042;11.192;2023-05-31T12:39:19;95193.06;;;29.06;24.12
36828;BME280;22766;48.042;11.192;2023-05-31T12:41:47;95191.22;;;29.11;24.98
36828;BME280;22766;48.042;11.192;2023-05-31T12:44:21;95193.31;;;28.94;24.44
36828;BME280;22766;48.042;11.192;2023-05-31T12:46:50;95184.13;;;29.52;25.31
36828;BME280;22766;48.042;11.192;2023-05-31T12:49:26;95182.31;;;28.71;25.59
36828;BME280;22766;48.042;11.192;2023-05-31T12:52:03;95168.66;;;29.19;23.85
36828;BME280;22766;48.042;11.192;2023-05-31T12:54:31;95174.28;;;29.68;24.77
36828;BME280;22766;48.042;11.192;2023-05-31T12:57:01;95189.47;;;30.02;23.64
36828;BME280;22766;48.042;11.192;2023-05-31T12:59:29;95188.09;;;30.45;23.34
36828;BME280;22766;48.042;11.192;2023-05-31T13:01:57;95187.56;;;30.48;24.41
36828;BME280;22766;48.042;11.192;2023-05-31T13:04:25;95183.28;;;30.47;23.85
36828;BME280;22766;48.042;11.192;2023-05-31T13:06:52;95176.41;;;30.21;23.45
36828;BME280;22766;48.042;11.192;2023-05-31T13:09:19;95187.00;;;30.51;24.53
36828;BME280;22766;48.042;11.192;2023-05-31T13:11:47;95173.13;;;30.59;23.84
36828;BME280;22766;48.042;11.192;2023-05-31T13:14:19;95178.88;;;30.96;22.33
36828;BME280;22766;48.042;11.192;2023-05-31T13:16:52;95171.44;;;30.88;23.88
36828;BME280;22766;48.042;11.192;2023-05-31T13:19:19;95172.59;;;31.60;24.03
36828;BME280;22766;48.042;11.192;2023-05-31T13:21:46;95169.81;;;30.87;23.83
36828;BME280;22766;48.042;11.192;2023-05-31T13:24:12;95177.31;;;31.29;23.53
36828;BME280;22766;48.042;11.192;2023-05-31T13:26:41;95165.66;;;31.20;23.56
36828;BME280;22766;48.042;11.192;2023-05-31T13:29:08;95169.47;;;30.25;23.15